Time;durP1;ratioP1;P1;durP2;ratioP2;P2;SDS_P1;SDS_P2;PMS_P1;PMS_P2;Temp;Humidity;BMP_temperature;BMP_pressure;BME280_temperature;BME280_humidity;BME280_pressure;Samples;Min_cycle;Max_cycle;Signal;HPM_P1;HPM_P2
2021/08/21 00:01:11;;;;;;;6.72;5.22;;;;;;;18.83;76.13;101362.92;1702112;84;20999;-83
2021/08/21 00:03:39;;;;;;;9.40;5.55;;;;;;;18.79;76.39;101359.41;1654132;87;20928;-82
2021/08/21 00:06:07;;;;;;;7.28;5.10;;;;;;;18.75;76.62;101360.64;1702956;84;20938;-83
2021/08/21 00:08:35;;;;;;;7.90;5.17;;;;;;;18.70;76.82;101362.86;1653746;87;20972;-80
2021/08/21 00:11:03;;;;;;;6.75;5.50;;;;;;;18.65;77.06;101359.79;1702369;84;20927;-85
2021/08/21 00:13:29;;;;;;;7.90;5.67;;;;;;;18.61;77.30;101367.11;1653730;87;21018;-84
2021/08/21 00:15:56;;;;;;;10.48;5.33;;;;;;;18.58;77.63;101363.44;1702106;84;20919;-81
2021/08/21 00:18:25;;;;;;;10.55;5.55;;;;;;;18.55;77.93;101368.14;1653746;87;20929;-83
2021/08/21 00:20:52;;;;;;;7.78;5.78;;;;;;;18.54;78.16;101369.13;1701844;84;20954;-84
2021/08/21 00:23:19;;;;;;;6.55;5.37;;;;;;;18.54;78.42;101367.81;1651945;87;21146;-82
2021/08/21 00:25:46;;;;;;;6.90;5.25;;;;;;;18.53;78.75;101360.88;1698693;84;21395;-85
2021/08/21 00:28:12;;;;;;;10.48;5.90;;;;;;;18.51;79.27;101370.70;1690247;85;21078;-82
2021/08/21 00:30:39;;;;;;;7.92;5.90;;;;;;;18.48;79.50;101371.27;1690661;85;21058;-80
2021/08/21 00:33:07;;;;;;;9.43;6.12;;;;;;;18.47;79.78;101364.34;1691108;85;20963;-81
2021/08/21 00:35:33;;;;;;;7.75;5.60;;;;;;;18.45;79.98;101368.92;1690359;85;21118;-82
2021/08/21 00:38:00;;;;;;;8.08;5.53;;;;;;;18.44;80.17;101367.25;1690368;85;20995;-88
2021/08/21 00:40:29;;;;;;;9.38;5.83;;;;;;;18.41;80.25;101361.45;1690119;85;20951;-84
2021/08/21 00:42:55;;;;;;;6.72;5.90;;;;;;;18.39;80.45;101362.05;1665007;85;21478;-83
2021/08/21 00:45:22;;;;;;;8.20;6.03;;;;;;;18.32;80.68;101354.34;1664416;85;20908;-83
2021/08/21 00:47:49;;;;;;;8.05;6.05;;;;;;;18.27;80.96;101353.94;1689654;85;21738;-84
2021/08/21 00:50:15;;;;;;;7.05;5.70;;;;;;;18.23;81.28;101353.84;1689678;85;20986;-85
2021/08/21 00:52:42;;;;;;;8.73;5.42;;;;;;;18.20;81.54;101355.42;1689856;85;21486;-84
2021/08/21 00:55:09;;;;;;;7.30;5.90;;;;;;;18.16;81.87;101352.23;1689850;85;21026;-81
2021/08/21 00:57:36;;;;;;;8.73;6.08;;;;;;;18.13;82.21;101354.29;1689807;85;20908;-82
2021/08/21 01:00:04;;;;;;;8.63;6.30;;;;;;;18.10;82.49;101355.87;1689868;85;21832;-86
2021/08/21 01:02:32;;;;;;;8.20;6.55;;;;;;;18.08;82.77;101356.02;1664586;85;21533;-84
2021/08/21 01:04:58;;;;;;;15.53;6.28;;;;;;;18.05;83.31;101360.70;1664319;85;21519;-81
2021/08/21 01:07:30;;;;;;;9.18;5.37;;;;;;;18.00;84.02;101362.39;1688973;84;20964;-85
2021/08/21 01:10:02;;;;;;;10.98;5.87;;;;;;;17.95;84.60;101357.55;1689926;85;20991;-83
2021/08/21 01:12:33;;;;;;;10.53;6.80;;;;;;;17.90;84.88;101364.17;1689763;85;20936;-85
2021/08/21 01:14:59;;;;;;;7.45;6.35;;;;;;;17.87;85.29;101356.05;1689822;85;21561;-84
2021/08/21 01:17:27;;;;;;;9.05;6.40;;;;;;;17.86;85.17;101358.83;1664646;85;20951;-80
2021/08/21 01:19:55;;;;;;;7.28;6.10;;;;;;;17.85;85.06;101353.21;1689848;85;20911;-79
2021/08/21 01:22:25;;;;;;;8.90;6.25;;;;;;;17.85;84.72;101360.61;1690149;85;20987;-83
2021/08/21 01:24:58;;;;;;;8.75;6.12;;;;;;;17.87;84.45;101353.90;1689702;85;21831;-82
2021/08/21 01:27:28;;;;;;;9.78;6.15;;;;;;;17.85;84.26;101359.30;1698019;84;21001;-81
2021/08/21 01:30:15;;;;;;;8.55;6.45;;;;;;;17.85;83.85;101357.15;1653212;86;20984;-80
2021/08/21 01:32:44;;;;;;;9.83;6.10;;;;;;;17.84;83.56;101352.37;1702162;84;21036;-82
2021/08/21 01:35:14;;;;;;;9.08;6.55;;;;;;;17.85;82.99;101346.17;1653841;86;21007;-80
2021/08/21 01:37:41;;;;;;;9.68;5.62;;;;;;;17.86;82.64;101345.22;1702317;84;21150;-80
2021/08/21 01:40:26;;;;;;;7.17;5.83;;;;;;;17.87;82.30;101346.02;1634235;86;21022;-84
2021/08/21 01:42:54;;;;;;;8.88;6.83;;;;;;;17.88;81.79;101344.59;1702134;84;20899;-83
2021/08/21 01:45:22;;;;;;;8.50;6.50;;;;;;;17.88;81.26;101342.45;1653680;86;21506;-82
2021/08/21 01:47:49;;;;;;;10.23;6.58;;;;;;;17.91;80.65;101343.50;1702404;84;20998;-84
2021/08/21 01:50:19;;;;;;;10.93;6.25;;;;;;;17.93;79.99;101342.90;1653878;86;21142;-83
2021/08/21 01:52:49;;;;;;;10.23;6.65;;;;;;;17.92;79.59;101348.63;1702145;84;20923;-80
2021/08/21 01:55:21;;;;;;;11.73;6.22;;;;;;;17.94;79.00;101343.23;1651926;86;21053;-83
2021/08/21 01:57:49;;;;;;;8.65;6.75;;;;;;;17.94;78.43;101345.37;1702472;84;21556;-81
2021/08/21 02:00:29;;;;;;;10.32;6.95;;;;;;;17.95;78.08;101344.42;1651939;86;20980;-86
2021/08/21 02:02:57;;;;;;;8.35;6.70;;;;;;;17.94;78.02;101332.72;1680184;84;21163;-85
2021/08/21 02:05:25;;;;;;;12.35;6.78;;;;;;;17.93;77.82;101334.52;1653430;86;21031;-85
2021/08/21 02:07:52;;;;;;;10.88;6.47;;;;;;;17.92;77.75;101335.50;1702211;84;21003;-86
2021/08/21 02:10:19;;;;;;;11.93;7.08;;;;;;;17.91;77.85;101328.58;1630600;86;21098;-88
2021/08/21 02:12:48;;;;;;;9.63;6.37;;;;;;;17.92;78.02;101337.29;1702068;84;21437;-84
2021/08/21 02:15:16;;;;;;;11.70;6.47;;;;;;;17.92;77.98;101328.09;1653788;86;21183;-85
2021/08/21 02:17:53;;;;;;;9.05;6.70;;;;;;;17.93;77.53;101330.58;1702332;84;20892;-86
2021/08/21 02:20:38;;;;;;;10.68;6.92;;;;;;;17.93;77.22;101327.95;1653979;86;21088;-87
2021/08/21 02:23:06;;;;;;;9.30;6.67;;;;;;;17.92;77.21;101330.25;1702080;84;22242;-82
2021/08/21 02:25:35;;;;;;;13.13;6.42;;;;;;;17.91;77.09;101334.30;1653828;86;21008;-88
2021/08/21 02:28:08;;;;;;;10.70;6.30;;;;;;;17.86;76.78;101336.50;1701907;84;21172;-87
2021/08/21 02:30:36;;;;;;;11.77;5.70;;;;;;;17.79;76.83;101327.48;1654034;86;20976;-83
2021/08/21 02:33:04;;;;;;;12.88;5.78;;;;;;;17.78;77.18;101333.69;1702272;84;21018;-84
2021/08/21 02:35:32;;;;;;;8.33;5.62;;;;;;;17.76;76.90;101338.25;1653544;86;21594;-87
2021/08/21 02:38:02;;;;;;;7.58;6.03;;;;;;;17.73;77.13;101341.14;1702148;84;21009;-87
2021/08/21 02:40:29;;;;;;;10.78;6.05;;;;;;;17.70;77.21;101340.92;1653785;86;21157;-88
2021/08/21 02:42:56;;;;;;;8.78;5.53;;;;;;;17.69;77.27;101346.29;1679808;84;21457;-90
2021/08/21 02:45:24;;;;;;;10.40;5.83;;;;;;;17.68;77.39;101353.80;1653540;86;21016;-89
2021/08/21 02:47:51;;;;;;;8.03;5.60;;;;;;;17.67;77.28;101355.63;1679811;84;20977;-88
2021/08/21 02:50:19;;;;;;;10.32;5.55;;;;;;;17.66;77.20;101357.05;1630938;86;21594;-91
2021/08/21 02:52:50;;;;;;;9.73;6.65;;;;;;;17.65;77.32;101360.62;1702413;84;21135;-90
2021/08/21 02:55:17;;;;;;;11.10;6.55;;;;;;;17.63;77.40;101357.31;1653771;86;20908;-89
2021/08/21 02:57:46;;;;;;;12.73;7.10;;;;;;;17.60;77.27;101363.66;1702037;83;20950;-88
2021/08/21 03:00:14;;;;;;;7.80;6.12;;;;;;;17.57;77.26;101357.83;1630948;86;20972;-82
2021/08/21 03:02:43;;;;;;;10.38;6.55;;;;;;;17.55;77.34;101367.12;1701588;83;21001;-85
2021/08/21 03:05:12;;;;;;;11.78;6.50;;;;;;;17.49;77.42;101359.74;1653535;86;21114;-84
2021/08/21 03:07:38;;;;;;;9.80;6.83;;;;;;;17.47;77.53;101361.67;1702143;84;21098;-89
2021/08/21 03:10:07;;;;;;;8.50;6.45;;;;;;;17.43;77.69;101359.78;1653713;86;21504;-86
2021/08/21 03:12:36;;;;;;;9.53;6.85;;;;;;;17.41;77.87;101364.34;1700583;84;20989;-90
2021/08/21 03:15:05;;;;;;;8.95;6.95;;;;;;;17.41;78.10;101362.19;1653660;86;21484;-92
2021/08/21 03:17:32;;;;;;;10.03;6.50;;;;;;;17.42;78.73;101363.36;1702441;84;21165;-92
2021/08/21 03:19:59;;;;;;;11.40;6.10;;;;;;;17.44;78.59;101361.45;1653599;86;20995;-93
2021/08/21 03:22:27;;;;;;;13.80;6.20;;;;;;;17.48;78.40;101359.41;1680007;84;20994;-90
2021/08/21 03:24:54;;;;;;;7.92;6.25;;;;;;;17.52;78.48;101363.42;1653447;86;21516;-88
2021/08/21 03:27:20;;;;;;;8.75;5.87;;;;;;;17.56;78.14;101365.34;1674544;85;21083;-91
2021/08/21 03:29:48;;;;;;;10.13;6.30;;;;;;;17.58;77.82;101363.44;1689695;85;21141;-91
2021/08/21 03:32:17;;;;;;;10.60;6.37;;;;;;;17.59;77.63;101367.23;1690552;84;20951;-91
2021/08/21 03:34:54;;;;;;;11.63;7.45;;;;;;;17.60;77.51;101372.00;1689993;85;20908;-92
2021/08/21 03:37:26;;;;;;;12.82;6.50;;;;;;;17.60;77.38;101375.95;1689377;85;20944;-91
2021/08/21 03:39:52;;;;;;;9.23;6.65;;;;;;;17.58;77.32;101380.50;1689693;85;21553;-89
2021/08/21 03:42:21;;;;;;;10.53;6.53;;;;;;;17.54;77.46;101379.05;1664143;85;21162;-93
2021/08/21 03:44:50;;;;;;;12.07;6.58;;;;;;;17.48;77.66;101380.88;1688758;85;20951;-91
2021/08/21 03:47:17;;;;;;;9.03;6.85;;;;;;;17.44;77.89;101386.39;1689237;85;20947;-88
2021/08/21 03:49:46;;;;;;;9.43;6.67;;;;;;;17.44;77.91;101386.86;1689679;85;21553;-87
2021/08/21 03:52:14;;;;;;;8.00;5.78;;;;;;;17.45;77.84;101387.22;1664124;85;21331;-90
2021/08/21 03:54:43;;;;;;;8.65;5.85;;;;;;;17.42;78.01;101389.59;1689876;85;21146;-84
2021/08/21 03:57:11;;;;;;;7.75;5.90;;;;;;;17.43;78.27;101391.74;1689260;85;21038;-86
2021/08/21 03:59:38;;;;;;;8.70;5.95;;;;;;;17.40;78.63;101391.53;1689641;85;20864;-89
2021/08/21 04:02:05;;;;;;;8.48;5.67;;;;;;;17.38;78.99;101396.08;1689972;85;21566;-87
2021/08/21 04:04:32;;;;;;;12.70;6.40;;;;;;;17.39;79.62;101397.72;1689700;85;20979;-85
2021/08/21 04:07:02;;;;;;;12.15;7.90;;;;;;;17.40;80.31;101403.34;1664298;85;21906;-90
2021/08/21 04:09:31;;;;;;;10.50;7.20;;;;;;;17.42;80.96;101400.59;1689262;84;21584;-90
2021/08/21 04:12:00;;;;;;;9.28;6.60;;;;;;;17.43;81.65;101396.52;1689391;85;20912;-89
2021/08/21 04:14:29;;;;;;;14.38;6.90;;;;;;;17.46;82.09;101398.89;1689473;85;21026;-92
2021/08/21 04:17:00;;;;;;;12.35;6.42;;;;;;;17.50;82.42;101403.41;1689652;85;20947;-92
2021/08/21 04:19:32;;;;;;;10.60;6.37;;;;;;;17.52;82.74;101409.34;1689809;85;21174;-93
2021/08/21 04:22:02;;;;;;;9.93;6.90;;;;;;;17.54;83.04;101406.13;1688140;85;21830;-83
2021/08/21 04:24:46;;;;;;;8.50;6.45;;;;;;;17.59;83.21;101404.45;1689132;85;20911;-88
2021/08/21 04:27:13;;;;;;;10.70;6.95;;;;;;;17.64;83.07;101408.86;1691252;84;20951;-86
2021/08/21 04:29:40;;;;;;;11.75;9.60;;;;;;;17.68;83.10;101407.14;1699825;84;21006;-84
2021/08/21 04:32:10;;;;;;;17.42;11.75;;;;;;;17.73;83.12;101408.91;1675505;84;21169;-88
2021/08/21 04:34:36;;;;;;;17.90;11.80;;;;;;;17.77;82.99;101413.43;1651676;87;20924;-88
2021/08/21 04:37:05;;;;;;;15.55;10.60;;;;;;;17.80;83.00;101410.55;1699455;83;20931;-87
2021/08/21 04:39:32;;;;;;;23.60;12.82;;;;;;;17.84;82.99;101412.77;1626635;87;21574;-90
2021/08/21 04:42:00;;;;;;;19.52;11.68;;;;;;;17.89;82.97;101413.23;1700657;82;21088;-90
2021/08/21 04:44:27;;;;;;;21.23;12.45;;;;;;;17.95;82.98;101414.49;1652013;87;21952;-91
2021/08/21 04:46:56;;;;;;;15.88;13.05;;;;;;;18.03;82.81;101419.91;1699776;84;21060;-88
2021/08/21 04:49:27;;;;;;;26.57;12.95;;;;;;;18.10;82.49;101420.22;1652353;87;21043;-91
2021/08/21 04:51:56;;;;;;;15.40;11.12;;;;;;;18.16;82.24;101433.66;1700042;83;20947;-90
2021/08/21 04:54:24;;;;;;;15.35;10.78;;;;;;;18.23;81.99;101430.03;1651256;87;21511;-89
2021/08/21 04:57:02;;;;;;;16.90;10.38;;;;;;;18.30;81.74;101429.39;1700156;84;21513;-92
2021/08/21 04:59:32;;;;;;;13.88;8.35;;;;;;;18.38;81.51;101433.48;1651655;86;21124;-90
2021/08/21 05:02:01;;;;;;;16.55;8.90;;;;;;;18.47;81.70;101439.77;1699961;84;20927;-85
2021/08/21 05:04:36;;;;;;;19.50;8.53;;;;;;;18.54;82.07;101433.02;1651563;87;20956;-91
2021/08/21 05:07:03;;;;;;;16.15;8.10;;;;;;;18.59;82.47;101432.15;1700767;84;21082;-87
2021/08/21 05:09:30;;;;;;;10.23;7.53;;;;;;;18.65;82.73;101434.72;1651688;87;21793;-86
2021/08/21 05:11:59;;;;;;;17.55;7.60;;;;;;;18.72;82.71;101434.53;1699436;84;21033;-85
2021/08/21 05:14:25;;;;;;;12.98;6.97;;;;;;;18.81;81.94;101435.03;1626951;87;20980;-85
2021/08/21 05:16:53;;;;;;;10.15;7.15;;;;;;;18.90;81.13;101439.00;1699866;84;20955;-88
2021/08/21 05:19:41;;;;;;;12.10;6.90;;;;;;;19.02;79.21;101439.22;1651543;87;20920;-87
2021/08/21 05:22:23;;;;;;;8.40;6.60;;;;;;;19.12;79.06;101441.86;1699550;83;21818;-87
2021/08/21 05:24:50;;;;;;;10.90;7.00;;;;;;;19.21;78.49;101440.22;1650806;85;21467;-81
2021/08/21 05:27:17;;;;;;;9.93;6.35;;;;;;;19.29;77.53;101438.55;1699910;84;21442;-87
2021/08/21 05:29:44;;;;;;;10.68;6.58;;;;;;;19.37;77.14;101439.99;1653770;86;21043;-87
2021/08/21 05:32:11;;;;;;;18.07;7.22;;;;;;;19.46;76.87;101448.40;1702138;84;21054;-83
2021/08/21 05:34:38;;;;;;;11.10;6.97;;;;;;;19.54;76.39;101448.55;1653785;86;21125;-89
2021/08/21 05:37:06;;;;;;;12.15;7.30;;;;;;;19.63;75.88;101452.14;1702003;84;21529;-81
2021/08/21 05:39:33;;;;;;;12.10;8.00;;;;;;;19.71;75.36;101458.86;1653896;86;21079;-82
2021/08/21 05:42:00;;;;;;;10.48;7.72;;;;;;;19.80;73.64;101458.50;1702415;84;20986;-90
2021/08/21 05:44:27;;;;;;;8.78;7.20;;;;;;;19.87;73.44;101453.84;1654041;86;21620;-89
2021/08/21 05:46:55;;;;;;;16.35;7.33;;;;;;;19.92;73.53;101459.51;1702220;84;21126;-89
2021/08/21 05:49:21;;;;;;;12.73;7.45;;;;;;;19.98;73.52;101453.67;1653600;86;21570;-89
2021/08/21 05:51:48;;;;;;;10.72;7.40;;;;;;;20.05;73.48;101456.08;1702288;84;20979;-79
2021/08/21 05:54:16;;;;;;;11.30;7.55;;;;;;;20.14;72.83;101453.06;1653713;86;20904;-88
2021/08/21 05:56:44;;;;;;;19.27;7.70;;;;;;;20.23;72.51;101450.87;1702340;84;20974;-88
2021/08/21 05:59:10;;;;;;;13.40;7.97;;;;;;;20.31;71.83;101448.41;1653726;86;21078;-86
2021/08/21 06:01:38;;;;;;;9.40;7.10;;;;;;;20.39;71.78;101448.49;1702409;84;20962;-94
2021/08/21 06:04:06;;;;;;;14.43;8.20;;;;;;;20.49;71.75;101449.77;1654148;86;21079;-89
2021/08/21 06:06:36;;;;;;;12.73;8.63;;;;;;;20.61;71.34;101453.90;1702229;84;20943;-85
2021/08/21 06:09:03;;;;;;;10.82;8.68;;;;;;;20.73;70.94;101454.52;1653734;86;21051;-89
2021/08/21 06:11:31;;;;;;;15.10;8.53;;;;;;;20.82;70.33;101449.19;1702254;84;21117;-86
2021/08/21 06:13:57;;;;;;;11.45;8.73;;;;;;;20.90;69.87;101457.69;1653734;86;20975;-87
2021/08/21 06:16:23;;;;;;;12.28;9.28;;;;;;;20.98;69.13;101455.13;1702343;84;21573;-87
2021/08/21 06:19:05;;;;;;;15.20;8.10;;;;;;;21.10;68.83;101449.51;1655004;83;21043;-89
2021/08/21 06:21:36;;;;;;;11.88;7.37;;;;;;;21.19;68.48;101458.84;1702952;83;21037;-91
2021/08/21 06:24:03;;;;;;;13.03;7.72;;;;;;;21.26;68.30;101453.28;1653534;86;21116;-89
2021/08/21 06:26:30;;;;;;;10.95;7.85;;;;;;;21.30;68.20;101457.28;1703078;84;21615;-88
2021/08/21 06:28:57;;;;;;;10.48;7.08;;;;;;;21.37;67.88;101455.22;1645793;86;20947;-88
2021/08/21 06:31:23;;;;;;;15.75;7.45;;;;;;;21.46;67.12;101454.30;1653218;86;21048;-85
2021/08/21 06:33:49;;;;;;;7.72;5.53;;;;;;;21.54;66.59;101460.13;1671615;84;21668;-90
2021/08/21 06:36:16;;;;;;;7.70;4.80;;;;;;;21.63;66.01;101457.91;1699028;84;21129;-88
2021/08/21 06:38:42;;;;;;;5.92;4.67;;;;;;;21.69;65.07;101458.61;1698929;84;20913;-91
2021/08/21 06:41:09;;;;;;;10.80;4.45;;;;;;;21.77;63.96;101449.41;1698867;84;20973;-87
2021/08/21 06:43:38;;;;;;;8.38;4.50;;;;;;;21.85;63.56;101453.45;1699075;84;20928;-86
2021/08/21 06:46:09;;;;;;;8.75;4.70;;;;;;;21.93;62.82;101456.16;1698272;84;21564;-91
2021/08/21 06:48:36;;;;;;;8.58;4.58;;;;;;;22.01;62.44;101453.59;1699301;84;21114;-88
2021/08/21 06:51:04;;;;;;;7.37;4.45;;;;;;;22.10;62.26;101460.58;1699040;84;21003;-93
2021/08/21 06:53:31;;;;;;;6.00;4.45;;;;;;;22.18;62.14;101458.97;1699721;84;21023;-92
2021/08/21 06:56:02;;;;;;;8.43;4.62;;;;;;;22.23;62.41;101459.32;1698827;84;21431;-90
2021/08/21 06:58:29;;;;;;;8.55;4.42;;;;;;;22.28;62.22;101465.78;1699027;84;21497;-80
2021/08/21 07:00:56;;;;;;;4.60;4.20;;;;;;;22.34;60.69;101459.03;1698741;84;21122;-88
2021/08/21 07:03:23;;;;;;;13.03;5.00;;;;;;;22.43;60.00;101462.08;1699261;84;20897;-91
2021/08/21 07:05:50;;;;;;;7.62;4.55;;;;;;;22.49;59.99;101461.44;1698873;84;20979;-82
2021/08/21 07:08:18;;;;;;;6.62;5.00;;;;;;;22.57;59.13;101466.26;1699032;84;20853;-90
2021/08/21 07:10:45;;;;;;;7.03;5.70;;;;;;;22.71;58.50;101454.77;1699761;84;20924;-81
2021/08/21 07:13:14;;;;;;;10.08;5.45;;;;;;;22.79;58.36;101462.23;1699002;84;39320;-86
2021/08/21 07:15:42;;;;;;;6.08;5.30;;;;;;;22.86;58.56;101463.25;1700227;84;20996;-92
2021/08/21 07:18:09;;;;;;;9.68;5.47;;;;;;;22.92;58.24;101461.28;1699508;84;21514;-89
2021/08/21 07:20:36;;;;;;;14.83;6.55;;;;;;;22.97;58.24;101461.63;1699352;84;21023;-92
2021/08/21 07:23:06;;;;;;;15.65;8.40;;;;;;;23.04;58.91;101467.08;1699548;84;21558;-94
2021/08/21 07:25:33;;;;;;;19.10;8.68;;;;;;;23.13;58.64;101462.96;1699179;84;21744;-85
2021/08/21 07:28:00;;;;;;;14.63;7.45;;;;;;;23.26;58.52;101456.38;1700059;84;21022;-79
2021/08/21 07:30:27;;;;;;;12.18;7.20;;;;;;;23.42;57.76;101458.55;1726896;83;20981;-89
2021/08/21 07:32:55;;;;;;;9.78;6.70;;;;;;;23.51;57.60;101459.41;1726690;83;21545;-93
2021/08/21 07:35:22;;;;;;;9.98;7.20;;;;;;;23.57;57.78;101458.73;1726643;83;20946;-85
2021/08/21 07:37:48;;;;;;;7.42;6.28;;;;;;;23.68;57.53;101458.39;1726466;83;21102;-92
2021/08/21 07:40:15;;;;;;;8.48;6.03;;;;;;;23.76;56.76;101460.22;1726771;83;21442;-91
2021/08/21 07:42:42;;;;;;;8.05;6.22;;;;;;;23.82;59.16;101454.24;1726499;83;20990;-89
2021/08/21 07:45:10;;;;;;;12.35;6.72;;;;;;;23.89;59.92;101453.91;1726394;83;21054;-82
2021/08/21 07:47:37;;;;;;;14.55;6.37;;;;;;;23.95;59.66;101458.04;1726423;83;21041;-88
2021/08/21 07:50:04;;;;;;;8.83;5.58;;;;;;;23.99;59.88;101457.20;1726432;83;21713;-86
2021/08/21 07:52:31;;;;;;;11.73;6.30;;;;;;;24.02;58.11;101460.84;1726527;83;20955;-84
2021/08/21 07:54:57;;;;;;;11.90;5.45;;;;;;;24.09;57.90;101459.98;1726717;83;20923;-89
2021/08/21 07:57:24;;;;;;;10.80;5.60;;;;;;;24.17;58.44;101459.17;1726526;83;20983;-81
2021/08/21 07:59:51;;;;;;;8.15;4.95;;;;;;;24.20;55.60;101450.87;1726553;83;20990;-88
2021/08/21 08:02:17;;;;;;;6.50;4.60;;;;;;;24.25;54.83;101452.50;1726726;83;21108;-91
2021/08/21 08:04:45;;;;;;;5.50;4.67;;;;;;;24.30;55.83;101458.14;1726540;83;21466;-90
2021/08/21 08:07:11;;;;;;;5.40;4.35;;;;;;;24.37;55.98;101458.28;1726517;83;20982;-80
2021/08/21 08:09:38;;;;;;;8.05;4.58;;;;;;;24.41;55.00;101456.95;1726571;83;20919;-87
2021/08/21 08:12:05;;;;;;;9.98;5.40;;;;;;;24.57;54.69;101463.00;1726426;83;21027;-85
2021/08/21 08:14:33;;;;;;;11.65;5.30;;;;;;;24.80;53.44;101464.88;1726418;83;21103;-92
2021/08/21 08:17:00;;;;;;;8.60;4.30;;;;;;;24.90;51.31;101472.16;1703884;83;20958;-87
2021/08/21 08:19:26;;;;;;;4.75;3.92;;;;;;;24.92;52.18;101463.02;1726464;83;21548;-87
2021/08/21 08:21:55;;;;;;;5.83;3.85;;;;;;;24.98;53.32;101472.96;1726561;83;20938;-93
2021/08/21 08:24:23;;;;;;;6.25;4.25;;;;;;;24.97;50.47;101465.16;1726398;83;21522;-81
2021/08/21 08:26:50;;;;;;;7.60;4.22;;;;;;;25.02;49.40;101468.10;1726660;83;21115;-84
2021/08/21 08:29:33;;;;;;;4.47;4.08;;;;;;;25.07;48.88;101467.09;1727336;82;21013;-90
2021/08/21 08:32:03;;;;;;;6.53;4.50;;;;;;;25.11;48.62;101465.75;1726606;83;21357;-89
2021/08/21 08:34:31;;;;;;;6.55;4.60;;;;;;;25.17;49.56;101465.03;1656306;85;21089;-93
2021/08/21 08:37:00;;;;;;;7.65;5.58;;;;;;;25.22;52.20;101462.66;1709441;83;20953;-82
2021/08/21 08:39:26;;;;;;;5.47;4.85;;;;;;;25.22;52.16;101461.34;1726650;83;21130;-90
2021/08/21 08:41:53;;;;;;;4.45;4.05;;;;;;;25.23;49.55;101454.53;1677801;85;21545;-89
2021/08/21 08:44:20;;;;;;;7.37;4.42;;;;;;;25.33;48.91;101454.30;1709273;83;21029;-81
2021/08/21 08:46:47;;;;;;;7.75;4.78;;;;;;;25.42;48.34;101452.39;1679734;85;21510;-82
2021/08/21 08:49:15;;;;;;;7.10;4.33;;;;;;;25.47;47.83;101443.36;1709597;84;21002;-83
2021/08/21 08:51:42;;;;;;;7.03;4.62;;;;;;;25.52;45.86;101449.85;1679372;85;21096;-83
2021/08/21 08:54:09;;;;;;;8.40;4.40;;;;;;;25.51;46.23;101449.52;1709429;84;21080;-90
2021/08/21 08:56:36;;;;;;;12.33;4.90;;;;;;;25.51;46.87;101446.86;1679931;85;21017;-89
2021/08/21 08:59:02;;;;;;;7.60;3.62;;;;;;;25.61;47.34;101443.95;1709537;84;21136;-83
2021/08/21 09:01:29;;;;;;;4.55;4.00;;;;;;;25.70;46.23;101442.86;1679246;85;20923;-82
2021/08/21 09:04:24;;;;;;;7.53;3.60;;;;;;;25.76;45.85;101436.32;1726762;83;21147;-81
2021/08/21 09:06:52;;;;;;;7.28;4.05;;;;;;;25.85;45.20;101440.25;1677940;85;20931;-87
2021/08/21 09:09:21;;;;;;;4.67;3.90;;;;;;;25.93;45.41;101444.14;1677914;85;21093;-84
2021/08/21 09:11:52;;;;;;;5.80;4.05;;;;;;;25.95;44.16;101446.10;1677967;85;20983;-81
2021/08/21 09:14:29;;;;;;;6.40;4.03;;;;;;;25.96;44.15;101447.27;1677836;85;20999;-86
2021/08/21 09:17:19;;;;;;;5.62;4.22;;;;;;;26.05;43.41;101445.33;1678030;85;21150;-86
2021/08/21 09:19:47;;;;;;;5.00;4.15;;;;;;;26.14;42.77;101442.90;1625018;85;21027;-85
2021/08/21 09:22:16;;;;;;;8.63;4.47;;;;;;;26.24;43.37;101440.83;1678130;84;21471;-77
2021/08/21 09:24:42;;;;;;;6.00;4.37;;;;;;;26.41;43.69;101444.13;1678020;85;20951;-86
2021/08/21 09:27:24;;;;;;;9.33;5.10;;;;;;;26.57;43.19;101439.92;1677988;85;21584;-84
2021/08/21 09:30:17;;;;;;;9.23;4.37;;;;;;;26.71;42.56;101437.72;1678079;84;21755;-82
2021/08/21 09:32:44;;;;;;;9.48;4.30;;;;;;;26.90;43.49;101437.67;1677752;85;20920;-87
2021/08/21 09:35:12;;;;;;;7.08;4.33;;;;;;;27.10;43.17;101430.69;1677865;85;21043;-84
2021/08/21 09:37:47;;;;;;;7.45;4.08;;;;;;;27.19;41.99;101424.22;1678102;85;20947;-81
2021/08/21 09:40:31;;;;;;;5.97;4.05;;;;;;;27.05;40.11;101427.28;1678101;85;20983;-85
2021/08/21 09:42:59;;;;;;;19.70;4.97;;;;;;;26.98;40.13;101426.38;1677965;85;21152;-87
2021/08/21 09:45:25;;;;;;;6.92;3.83;;;;;;;27.00;39.31;101423.52;1678147;85;20978;-85
2021/08/21 09:48:02;;;;;;;4.75;3.70;;;;;;;27.07;38.23;101427.91;1678074;85;20967;-81
2021/08/21 09:50:38;;;;;;;7.58;3.98;;;;;;;27.25;39.12;101423.48;1708795;83;21633;-87
2021/08/21 09:53:07;;;;;;;7.22;4.10;;;;;;;27.42;38.51;101424.01;1709302;84;20997;-81
2021/08/21 09:55:35;;;;;;;7.55;3.83;;;;;;;27.46;38.53;101421.31;1726852;83;20943;-86
2021/08/21 09:58:17;;;;;;;5.22;3.90;;;;;;;27.90;37.90;101419.67;1677740;85;21466;-81
2021/08/21 10:00:45;;;;;;;7.62;3.55;;;;;;;28.40;36.01;101425.22;1709117;84;20910;-85
2021/08/21 10:03:12;;;;;;;8.20;4.10;;;;;;;29.49;34.50;101426.70;1726820;83;21564;-87
2021/08/21 10:05:39;;;;;;;19.70;4.58;;;;;;;30.30;32.83;101422.16;1722262;83;20979;-86
2021/08/21 10:08:11;;;;;;;8.00;4.05;;;;;;;30.93;32.07;101423.08;1722029;83;21117;-83
2021/08/21 10:10:49;;;;;;;9.68;4.00;;;;;;;31.77;31.76;101419.15;1721801;82;20923;-81
2021/08/21 10:13:24;;;;;;;7.80;4.35;;;;;;;32.24;29.64;101421.13;1676357;85;21462;-79
2021/08/21 10:15:41;;;;;;;4.15;3.75;;;;;;;31.48;30.01;101426.82;1681069;84;20995;-85
2021/08/21 10:18:09;;;;;;;6.62;3.80;;;;;;;30.70;30.59;101426.82;1677964;85;21592;-85
2021/08/21 10:20:38;;;;;;;4.55;3.75;;;;;;;30.58;30.97;101431.73;1678029;85;21136;-86
2021/08/21 10:23:13;;;;;;;7.08;3.80;;;;;;;30.76;30.59;101419.81;1677668;85;20924;-84
2021/08/21 10:25:48;;;;;;;4.35;3.77;;;;;;;31.35;29.05;101421.57;1678014;85;21535;-80
2021/08/21 10:28:15;;;;;;;7.22;4.17;;;;;;;31.39;29.47;101415.25;1677154;85;21013;-83
2021/08/21 10:30:53;;;;;;;8.28;3.95;;;;;;;31.56;30.34;101410.98;1669061;85;21518;-91
2021/08/21 10:33:17;;;;;;;8.35;3.77;;;;;;;31.72;29.72;101411.75;1667547;85;21801;-78
2021/08/21 10:35:53;;;;;;;7.00;3.72;;;;;;;31.65;29.29;101409.68;1667369;85;20949;-86
2021/08/21 10:38:36;;;;;;;5.45;4.20;;;;;;;31.46;29.73;101414.13;1667240;86;21090;-84
2021/08/21 10:41:29;;;;;;;16.75;4.78;;;;;;;31.32;30.57;101415.81;1667099;85;20991;-83
2021/08/21 10:43:57;;;;;;;9.68;4.03;;;;;;;31.03;30.54;101413.25;1667398;86;20944;-89
2021/08/21 10:46:35;;;;;;;6.60;3.60;;;;;;;30.77;31.31;101414.22;1667385;86;21123;-85
2021/08/21 10:49:07;;;;;;;7.58;3.85;;;;;;;30.38;29.70;101409.84;1667237;86;21047;-83
2021/08/21 10:51:42;;;;;;;6.28;4.08;;;;;;;29.84;31.44;101408.06;1667377;85;20984;-86
2021/08/21 10:54:32;;;;;;;6.35;4.30;;;;;;;29.62;32.50;101409.31;1667640;86;21681;-86
2021/08/21 10:57:27;;;;;;;5.87;3.87;;;;;;;29.67;33.27;101401.50;1667713;86;20967;-78
2021/08/21 10:59:54;;;;;;;5.37;3.25;;;;;;;29.81;33.04;101399.09;1667241;86;21110;-88
2021/08/21 11:02:34;;;;;;;17.62;5.17;;;;;;;29.88;32.15;101400.77;1667586;85;20996;-86
2021/08/21 11:05:01;;;;;;;5.25;4.17;;;;;;;29.82;32.61;101398.07;1667239;86;20996;-84
2021/08/21 11:07:40;;;;;;;6.83;4.20;;;;;;;29.74;33.25;101398.31;1667735;86;20924;-86
2021/08/21 11:10:26;;;;;;;5.10;4.05;;;;;;;29.77;33.59;101389.31;1667602;86;20975;-85
2021/08/21 11:12:54;;;;;;;5.65;4.10;;;;;;;29.81;33.71;101390.55;1667644;86;21798;-88
2021/08/21 11:15:24;;;;;;;5.78;3.87;;;;;;;29.93;34.47;101387.28;1687517;84;20951;-81
2021/08/21 11:17:52;;;;;;;5.78;4.40;;;;;;;30.13;34.38;101389.35;1667542;86;29069;-84
2021/08/21 11:20:34;;;;;;;4.87;3.80;;;;;;;30.20;32.26;101385.63;1667418;85;20928;-89
2021/08/21 11:23:12;;;;;;;7.03;3.95;;;;;;;30.04;32.61;101380.74;1667305;86;21067;-77
2021/08/21 11:25:44;;;;;;;4.92;3.85;;;;;;;29.86;31.93;101385.44;1667353;85;21793;-82
2021/08/21 11:28:20;;;;;;;8.18;4.85;;;;;;;29.54;33.01;101379.61;1667454;85;20943;-83
2021/08/21 11:31:11;;;;;;;6.50;4.42;;;;;;;29.45;34.71;101386.20;1667434;85;20958;-86
2021/08/21 11:33:41;;;;;;;5.33;4.30;;;;;;;29.52;33.27;101390.18;1661467;86;20975;-84